Terminal Aerodrome Forecast
Issued by NWS

Home | Current Version | Previous Version | Text Only | Print | Product List | Glossary Off
Versions: 1 2 3 4 5 6 7 8 9 10 11 12 13 14

000
FTUS43 KICT 032323
TAFCNU
TAF
KCNU 032323Z 0400/0424 04010KT P6SM BKN050
     FM041400 10008KT P6SM SCT040
     FM041900 15008KT P6SM SCT040=

USA.gov is the U.S. government's official web portal to all federal, state and local government web resources and services.